PWSweather.com
Personal Weather Stations
Station Observations
KGAROSWE1
Roswell (historic Mill Village), Roswell, GA 30075

Roswell (historic Mill Village)Roswell, GA 30075

Lat: 34.014545, Lon: -84.358498

Elevation: 1025

Station Type: Davis Vantage Vue

http://www.roswellweather.net

Latest ConditionsUpdated 6:58:07 AM EST Friday, Feb 12, 2016
Currently Today's Max Today's Min Today's Average
Temperature 31.8°F-0.1°C 34.8°F1.6°C 31.7°F-0.2°C 32.3°F0.2°C
Dew Point 27.5°F-2.5°C 27.5°F-2.5°C 25.0°F-3.9°C 27.1°F-2.7°C
Winds Calm Calm Calm NNECalm NNE - Calm Calm
Wind Gusts -- 1.0 mph1.6 kmh - -
Humidity 84% 84% 67% 81%
Pressure 30.16 in1021.3 mb 30.21 in1023.0 mb 30.15 in1021.0 mb -
Hour Temp Dew Point Humidity Winds Wind Gusts Pressure Precip Precip Rate Daily Precip Total
06:58 AM 31.8°F-0.1°C 27.5°F-2.5°C 84% Calm Calm -- 30.16 in1021.3 mb 0.00 in0.0 mm 0.00 in0.0 mm 0.00 in0.0 mm
06:50 AM 31.8°F-0.1°C 27.5°F-2.5°C 84% Calm Calm -- 30.16 in1021.3 mb 0.00 in0.0 mm 0.00 in0.0 mm 0.00 in0.0 mm
06:42 AM 31.8°F-0.1°C 27.5°F-2.5°C 84% Calm Calm -- 30.16 in1021.3 mb 0.00 in0.0 mm 0.00 in0.0 mm 0.00 in0.0 mm
06:34 AM 31.8°F-0.1°C 27.5°F-2.5°C 84% Calm Calm -- 30.17 in1021.7 mb 0.00 in0.0 mm 0.00 in0.0 mm 0.00 in0.0 mm
06:26 AM 31.8°F-0.1°C 27.5°F-2.5°C 84% Calm Calm -- 30.16 in1021.3 mb 0.00 in0.0 mm 0.00 in0.0 mm 0.00 in0.0 mm
06:18 AM 31.8°F-0.1°C 27.5°F-2.5°C 84% Calm Calm -- 30.15 in1021.0 mb 0.00 in0.0 mm 0.00 in0.0 mm 0.00 in0.0 mm
06:10 AM 31.8°F-0.1°C 27.5°F-2.5°C 84% Calm Calm -- 30.16 in1021.3 mb 0.00 in0.0 mm 0.00 in0.0 mm 0.00 in0.0 mm
06:02 AM 31.8°F-0.1°C 27.5°F-2.5°C 84% Calm Calm -- 30.15 in1021.0 mb 0.00 in0.0 mm 0.00 in0.0 mm 0.00 in0.0 mm
05:54 AM 31.8°F-0.1°C 27.5°F-2.5°C 84% Calm Calm -- 30.16 in1021.3 mb 0.00 in0.0 mm 0.00 in0.0 mm 0.00 in0.0 mm
05:46 AM 31.8°F-0.1°C 27.5°F-2.5°C 84% Calm Calm -- 30.16 in1021.3 mb 0.00 in0.0 mm 0.00 in0.0 mm 0.00 in0.0 mm
05:38 AM 31.8°F-0.1°C 27.5°F-2.5°C 84% Calm Calm -- 30.16 in1021.3 mb 0.00 in0.0 mm 0.00 in0.0 mm 0.00 in0.0 mm
05:30 AM 31.8°F-0.1°C 27.5°F-2.5°C 84% Calm Calm -- 30.16 in1021.3 mb 0.00 in0.0 mm 0.00 in0.0 mm 0.00 in0.0 mm
05:22 AM 31.8°F-0.1°C 27.5°F-2.5°C 84% Calm Calm -- 30.17 in1021.7 mb 0.00 in0.0 mm 0.00 in0.0 mm 0.00 in0.0 mm
05:14 AM 31.8°F-0.1°C 27.5°F-2.5°C 84% Calm Calm -- 30.17 in1021.7 mb 0.00 in0.0 mm 0.00 in0.0 mm 0.00 in0.0 mm
05:06 AM 31.8°F-0.1°C 27.5°F-2.5°C 84% Calm Calm -- 30.17 in1021.7 mb 0.00 in0.0 mm 0.00 in0.0 mm 0.00 in0.0 mm
04:58 AM 31.8°F-0.1°C 27.5°F-2.5°C 84% Calm Calm -- 30.17 in1021.7 mb 0.00 in0.0 mm 0.00 in0.0 mm 0.00 in0.0 mm
04:50 AM 31.8°F-0.1°C 27.5°F-2.5°C 84% Calm Calm -- 30.17 in1021.7 mb 0.00 in0.0 mm 0.00 in0.0 mm 0.00 in0.0 mm
04:42 AM 31.8°F-0.1°C 27.5°F-2.5°C 84% Calm Calm -- 30.17 in1021.7 mb 0.00 in0.0 mm 0.00 in0.0 mm 0.00 in0.0 mm
04:34 AM 31.8°F-0.1°C 27.5°F-2.5°C 84% Calm Calm -- 30.17 in1021.7 mb 0.00 in0.0 mm 0.00 in0.0 mm 0.00 in0.0 mm
04:26 AM 31.8°F-0.1°C 27.5°F-2.5°C 84% Calm Calm -- 30.16 in1021.3 mb 0.00 in0.0 mm 0.00 in0.0 mm 0.00 in0.0 mm
04:18 AM 31.8°F-0.1°C 27.5°F-2.5°C 84% Calm Calm -- 30.17 in1021.7 mb 0.00 in0.0 mm 0.00 in0.0 mm 0.00 in0.0 mm
04:10 AM 31.8°F-0.1°C 27.5°F-2.5°C 84% Calm Calm -- 30.17 in1021.7 mb 0.00 in0.0 mm 0.00 in0.0 mm 0.00 in0.0 mm
04:02 AM 31.8°F-0.1°C 27.5°F-2.5°C 84% Calm Calm -- 30.17 in1021.7 mb 0.00 in0.0 mm 0.00 in0.0 mm 0.00 in0.0 mm
03:54 AM 31.8°F-0.1°C 27.5°F-2.5°C 84% Calm Calm -- 30.16 in1021.3 mb 0.00 in0.0 mm 0.00 in0.0 mm 0.00 in0.0 mm
03:46 AM 31.8°F-0.1°C 27.5°F-2.5°C 84% Calm Calm -- 30.17 in1021.7 mb 0.00 in0.0 mm 0.00 in0.0 mm 0.00 in0.0 mm
03:38 AM 31.8°F-0.1°C 27.5°F-2.5°C 84% Calm Calm -- 30.17 in1021.7 mb 0.00 in0.0 mm 0.00 in0.0 mm 0.00 in0.0 mm
03:30 AM 31.8°F-0.1°C 27.5°F-2.5°C 84% Calm Calm -- 30.17 in1021.7 mb 0.00 in0.0 mm 0.00 in0.0 mm 0.00 in0.0 mm
03:22 AM 32.0°F0.0°C 27.4°F-2.6°C 83% Calm Calm -- 30.17 in1021.7 mb 0.00 in0.0 mm 0.00 in0.0 mm 0.00 in0.0 mm
03:14 AM 31.8°F-0.1°C 26.9°F-2.8°C 82% Calm Calm -- 30.17 in1021.7 mb 0.00 in0.0 mm 0.00 in0.0 mm 0.00 in0.0 mm
03:06 AM 31.7°F-0.2°C 27.1°F-2.7°C 83% Calm Calm 1.0 mph1.6 kmh 30.17 in1021.7 mb 0.00 in0.0 mm 0.00 in0.0 mm 0.00 in0.0 mm
02:58 AM 31.7°F-0.2°C 26.8°F-2.9°C 82% Calm Calm -- 30.17 in1021.7 mb 0.00 in0.0 mm 0.00 in0.0 mm 0.00 in0.0 mm
02:50 AM 31.8°F-0.1°C 26.7°F-2.9°C 81% Calm Calm -- 30.18 in1022.0 mb 0.00 in0.0 mm 0.00 in0.0 mm 0.00 in0.0 mm
02:42 AM 31.8°F-0.1°C 26.7°F-2.9°C 81% Calm Calm -- 30.18 in1022.0 mb 0.00 in0.0 mm 0.00 in0.0 mm 0.00 in0.0 mm
02:34 AM 31.8°F-0.1°C 26.7°F-2.9°C 81% Calm Calm -- 30.18 in1022.0 mb 0.00 in0.0 mm 0.00 in0.0 mm 0.00 in0.0 mm
02:26 AM 31.7°F-0.2°C 26.8°F-2.9°C 82% Calm Calm -- 30.18 in1022.0 mb 0.00 in0.0 mm 0.00 in0.0 mm 0.00 in0.0 mm
02:18 AM 31.7°F-0.2°C 27.1°F-2.7°C 83% Calm Calm -- 30.18 in1022.0 mb 0.00 in0.0 mm 0.00 in0.0 mm 0.00 in0.0 mm
02:10 AM 31.8°F-0.1°C 27.2°F-2.7°C 83% Calm Calm -- 30.19 in1022.4 mb 0.00 in0.0 mm 0.00 in0.0 mm 0.00 in0.0 mm
02:02 AM 32.1°F0.1°C 26.6°F-3.0°C 80% Calm Calm -- 30.19 in1022.4 mb 0.00 in0.0 mm 0.00 in0.0 mm 0.00 in0.0 mm
01:54 AM 32.5°F0.3°C 26.4°F-3.1°C 78% Calm Calm -- 30.20 in1022.7 mb 0.00 in0.0 mm 0.00 in0.0 mm 0.00 in0.0 mm
01:46 AM 32.6°F0.3°C 26.5°F-3.1°C 78% Calm Calm -- 30.20 in1022.7 mb 0.00 in0.0 mm 0.00 in0.0 mm 0.00 in0.0 mm
01:38 AM 32.6°F0.3°C 26.5°F-3.1°C 78% Calm Calm -- 30.20 in1022.7 mb 0.00 in0.0 mm 0.00 in0.0 mm 0.00 in0.0 mm
01:30 AM 32.8°F0.4°C 26.7°F-2.9°C 78% Calm Calm -- 30.21 in1023.0 mb 0.00 in0.0 mm 0.00 in0.0 mm 0.00 in0.0 mm
01:22 AM 33.0°F0.6°C 27.2°F-2.7°C 79% Calm Calm -- 30.21 in1023.0 mb 0.00 in0.0 mm 0.00 in0.0 mm 0.00 in0.0 mm
01:14 AM 32.9°F0.5°C 26.5°F-3.1°C 77% Calm Calm -- 30.21 in1023.0 mb 0.00 in0.0 mm 0.00 in0.0 mm 0.00 in0.0 mm
01:06 AM 32.8°F0.4°C 26.4°F-3.1°C 77% Calm Calm -- 30.21 in1023.0 mb 0.00 in0.0 mm 0.00 in0.0 mm 0.00 in0.0 mm
12:58 AM 33.2°F0.7°C 27.1°F-2.7°C 78% Calm Calm -- 30.21 in1023.0 mb 0.00 in0.0 mm 0.00 in0.0 mm 0.00 in0.0 mm
12:50 AM 33.5°F0.8°C 26.8°F-2.9°C 76% Calm Calm -- 30.21 in1023.0 mb 0.00 in0.0 mm 0.00 in0.0 mm 0.00 in0.0 mm
12:42 AM 33.9°F1.1°C 26.5°F-3.1°C 74% Calm Calm -- 30.20 in1022.7 mb 0.00 in0.0 mm 0.00 in0.0 mm 0.00 in0.0 mm
12:34 AM 34.2°F1.2°C 25.8°F-3.4°C 71% Calm Calm -- 30.20 in1022.7 mb 0.00 in0.0 mm 0.00 in0.0 mm 0.00 in0.0 mm
12:26 AM 34.4°F1.3°C 26.0°F-3.3°C 71% Calm Calm -- 30.20 in1022.7 mb 0.00 in0.0 mm 0.00 in0.0 mm 0.00 in0.0 mm
12:18 AM 34.6°F1.4°C 26.2°F-3.2°C 71% Calm Calm -- 30.20 in1022.7 mb 0.00 in0.0 mm 0.00 in0.0 mm 0.00 in0.0 mm
12:10 AM 34.7°F1.5°C 25.6°F-3.6°C 69% Calm Calm -- 30.20 in1022.7 mb 0.00 in0.0 mm 0.00 in0.0 mm 0.00 in0.0 mm
12:02 AM 34.8°F1.6°C 25.0°F-3.9°C 67% Calm Calm -- 30.20 in1022.7 mb 0.00 in0.0 mm 0.00 in0.0 mm 0.00 in0.0 mm